Time;durP1;ratioP1;P1;durP2;ratioP2;P2;SDS_P1;SDS_P2;PMS_P1;PMS_P2;Temp;Humidity;BMP_temperature;BMP_pressure;BME280_temperature;BME280_humidity;BME280_pressure;Samples;Min_cycle;Max_cycle;Signal;HPM_P1;HPM_P2
2023/08/24 00:02:22;;;;;;;11.60;6.40;;;;;;;;;;6264097;28;20057;-61
2023/08/24 00:05:23;;;;;;;12.47;6.50;;;;;;;;;;6262647;28;20053;-61
2023/08/24 00:08:23;;;;;;;11.00;6.50;;;;;;;;;;6261306;28;20918;-61
2023/08/24 00:11:25;;;;;;;12.40;6.40;;;;;;;;;;6263755;28;20053;-62
2023/08/24 00:14:25;;;;;;;11.03;6.50;;;;;;;;;;6254990;28;20053;-61
2023/08/24 00:17:26;;;;;;;10.40;6.40;;;;;;;;;;6257935;28;20080;-61
2023/08/24 00:20:27;;;;;;;10.60;6.27;;;;;;;;;;6260918;28;20484;-61
2023/08/24 00:23:28;;;;;;;13.95;6.88;;;;;;;;;;6260753;28;20057;-61
2023/08/24 00:26:28;;;;;;;11.23;7.17;;;;;;;;;;6264997;28;20052;-60
2023/08/24 00:29:29;;;;;;;12.00;6.63;;;;;;;;;;6266193;28;20044;-61
2023/08/24 00:32:33;;;;;;;8.63;6.50;;;;;;;;;;6260412;28;20059;-61
2023/08/24 00:35:33;;;;;;;9.93;6.53;;;;;;;;;;6262196;28;20049;-61
2023/08/24 00:38:34;;;;;;;9.37;6.80;;;;;;;;;;6264788;28;20114;-61
2023/08/24 00:41:34;;;;;;;10.50;6.57;;;;;;;;;;6263206;28;20492;-61
2023/08/24 00:44:35;;;;;;;10.30;6.47;;;;;;;;;;6263912;28;20060;-61
2023/08/24 00:47:37;;;;;;;11.83;6.67;;;;;;;;;;6265614;28;20131;-61
2023/08/24 00:50:37;;;;;;;;;;;;;;;;;;6265414;28;20083;-60
2023/08/24 00:53:38;;;;;;;11.75;6.57;;;;;;;;;;6264026;28;20062;-61
2023/08/24 00:56:40;;;;;;;14.07;6.67;;;;;;;;;;6264090;28;20484;-61
2023/08/24 00:59:41;;;;;;;10.48;6.80;;;;;;;;;;6266855;28;20052;-61
2023/08/24 01:02:41;;;;;;;9.77;7.07;;;;;;;;;;6268741;28;20048;-61
2023/08/24 01:05:43;;;;;;;10.98;6.53;;;;;;;;;;6269425;28;20063;-61
2023/08/24 01:08:44;;;;;;;11.13;6.68;;;;;;;;;;6268877;28;20048;-60
2023/08/24 01:12:01;;;;;;;11.27;6.50;;;;;;;;;;6269062;28;20128;-61
2023/08/24 01:15:17;;;;;;;11.35;7.00;;;;;;;;;;6245388;28;20590;-60
2023/08/24 01:18:20;;;;;;;10.48;6.25;;;;;;;;;;6267899;28;20186;-61
2023/08/24 01:21:21;;;;;;;12.07;7.20;;;;;;;;;;6268593;28;20079;-60
2023/08/24 01:24:36;;;;;;;12.50;7.75;;;;;;;;;;6268244;28;20053;-61
2023/08/24 01:27:37;;;;;;;14.25;7.68;;;;;;;;;;6269866;28;20053;-61
2023/08/24 01:30:38;;;;;;;14.00;7.97;;;;;;;;;;6268809;28;20476;-61
2023/08/24 01:33:39;;;;;;;11.60;7.80;;;;;;;;;;6267235;28;20041;-60
2023/08/24 01:36:40;;;;;;;13.77;8.45;;;;;;;;;;6268361;28;20063;-60
2023/08/24 01:39:47;;;;;;;13.07;8.20;;;;;;;;;;6269941;28;20045;-60
2023/08/24 01:43:03;;;;;;;13.40;8.13;;;;;;;;;;6268612;28;20051;-60
2023/08/24 01:46:05;;;;;;;15.13;8.52;;;;;;;;;;6267956;28;20045;-60
2023/08/24 01:49:07;;;;;;;14.57;8.25;;;;;;;;;;6268131;28;20052;-60
2023/08/24 01:52:09;;;;;;;;;;;;;;;;;;6269910;28;20075;-61
2023/08/24 01:55:11;;;;;;;13.23;7.53;;;;;;;;;;6269121;28;19924;-60
2023/08/24 01:58:12;;;;;;;14.63;8.32;;;;;;;;;;6265823;28;20048;-60
2023/08/24 02:01:12;;;;;;;13.93;8.10;;;;;;;;;;6264761;28;20053;-61
2023/08/24 02:04:13;;;;;;;10.83;7.73;;;;;;;;;;6268459;28;20052;-60
2023/08/24 02:07:14;;;;;;;11.93;7.97;;;;;;;;;;6266161;28;20102;-59
2023/08/24 02:10:15;;;;;;;12.17;7.90;;;;;;;;;;6266527;28;20491;-60
2023/08/24 02:13:15;;;;;;;13.40;7.93;;;;;;;;;;6265848;28;20448;-60
2023/08/24 02:16:16;;;;;;;10.80;7.10;;;;;;;;;;6266945;28;20064;-60
2023/08/24 02:19:17;;;;;;;11.15;7.25;;;;;;;;;;6265096;28;20063;-60
2023/08/24 02:22:17;;;;;;;13.23;7.70;;;;;;;;;;6266897;28;20056;-60
2023/08/24 02:25:18;;;;;;;10.20;6.93;;;;;;;;;;6267207;28;20055;-60
2023/08/24 02:28:18;;;;;;;9.57;6.27;;;;;;;;;;6268763;28;20045;-61
2023/08/24 02:31:19;;;;;;;12.97;7.10;;;;;;;;;;6267512;28;20072;-60
2023/08/24 02:34:20;;;;;;;11.50;7.13;;;;;;;;;;6266232;28;20045;-60
2023/08/24 02:37:21;;;;;;;9.90;7.33;;;;;;;;;;6266913;28;20051;-60
2023/08/24 02:40:21;;;;;;;13.70;7.40;;;;;;;;;;6267068;28;20507;-60
2023/08/24 02:43:22;;;;;;;10.55;7.03;;;;;;;;;;6266279;28;20519;-60
2023/08/24 02:46:22;;;;;;;10.27;7.00;;;;;;;;;;6265961;28;20095;-61
2023/08/24 02:49:23;;;;;;;10.77;6.82;;;;;;;;;;6267456;28;20045;-60
2023/08/24 02:52:24;;;;;;;13.37;7.13;;;;;;;;;;6265544;28;20045;-60
2023/08/24 02:55:25;;;;;;;11.73;7.00;;;;;;;;;;6266506;28;20187;-61
2023/08/24 02:58:26;;;;;;;9.13;6.55;;;;;;;;;;6266523;28;20567;-61
2023/08/24 03:01:27;;;;;;;12.38;7.18;;;;;;;;;;6266593;28;20044;-60
2023/08/24 03:04:28;;;;;;;10.40;6.65;;;;;;;;;;6266774;28;20082;-60
2023/08/24 03:07:28;;;;;;;9.03;5.93;;;;;;;;;;6267501;28;20041;-60
2023/08/24 03:10:29;;;;;;;8.68;6.10;;;;;;;;;;6266121;28;20045;-60
2023/08/24 03:13:30;;;;;;;12.13;6.63;;;;;;;;;;6266455;28;20119;-60
2023/08/24 03:16:31;;;;;;;11.07;6.35;;;;;;;;;;6267268;28;20044;-61
2023/08/24 03:19:31;;;;;;;10.13;6.40;;;;;;;;;;6266755;28;20494;-60
2023/08/24 03:22:32;;;;;;;10.37;6.80;;;;;;;;;;6265664;28;20049;-60
2023/08/24 03:25:37;;;;;;;10.00;7.10;;;;;;;;;;6264568;28;20051;-61
2023/08/24 03:28:38;;;;;;;13.02;7.63;;;;;;;;;;6263593;28;20040;-60
2023/08/24 03:31:39;;;;;;;9.40;6.93;;;;;;;;;;6264700;28;20907;-59
2023/08/24 03:34:40;;;;;;;9.82;7.20;;;;;;;;;;6264194;28;20515;-59
2023/08/24 03:37:40;;;;;;;10.73;6.97;;;;;;;;;;6263131;28;20056;-60
2023/08/24 03:40:41;;;;;;;11.00;7.23;;;;;;;;;;6260569;28;20756;-59
2023/08/24 03:43:41;;;;;;;9.70;6.75;;;;;;;;;;6261163;28;20037;-59
2023/08/24 03:46:42;;;;;;;12.25;6.72;;;;;;;;;;6248453;28;20049;-60
2023/08/24 03:49:43;;;;;;;9.95;6.90;;;;;;;;;;6253285;28;20045;-60
2023/08/24 03:52:43;;;;;;;9.75;6.68;;;;;;;;;;6265354;28;20056;-60
2023/08/24 03:55:48;;;;;;;13.30;7.05;;;;;;;;;;6258927;28;20545;-60
2023/08/24 03:58:49;;;;;;;11.02;6.63;;;;;;;;;;6263527;28;20092;-60
2023/08/24 04:01:49;;;;;;;12.50;6.72;;;;;;;;;;6263519;28;20544;-60
2023/08/24 04:04:50;;;;;;;13.80;7.33;;;;;;;;;;6262856;28;20055;-61
2023/08/24 04:07:52;;;;;;;9.52;6.88;;;;;;;;;;6259368;28;20057;-60
2023/08/24 04:10:52;;;;;;;11.73;6.28;;;;;;;;;;6255432;28;20084;-60
2023/08/24 04:13:53;;;;;;;9.80;6.50;;;;;;;;;;6262936;28;20605;-61
2023/08/24 04:16:53;;;;;;;10.73;6.68;;;;;;;;;;6261218;28;20219;-60
2023/08/24 04:19:54;;;;;;;13.68;7.30;;;;;;;;;;6262551;28;20437;-61
2023/08/24 04:22:56;;;;;;;11.60;7.00;;;;;;;;;;6266634;28;20102;-60
2023/08/24 04:25:56;;;;;;;10.70;6.88;;;;;;;;;;6264691;28;20127;-60
2023/08/24 04:28:57;;;;;;;10.98;7.13;;;;;;;;;;6263633;28;20045;-60
2023/08/24 04:31:58;;;;;;;12.20;6.60;;;;;;;;;;6264018;28;20407;-61
2023/08/24 04:34:58;;;;;;;10.48;6.65;;;;;;;;;;6261550;28;20049;-60
2023/08/24 04:37:59;;;;;;;12.10;7.50;;;;;;;;;;6261659;28;20399;-60
2023/08/24 04:41:00;;;;;;;12.68;7.78;;;;;;;;;;6261786;28;20052;-60
2023/08/24 04:44:01;;;;;;;13.47;7.80;;;;;;;;;;6261709;28;20931;-60
2023/08/24 04:47:01;;;;;;;14.52;7.57;;;;;;;;;;6263357;28;20041;-60
2023/08/24 04:50:02;;;;;;;9.82;6.93;;;;;;;;;;6263837;28;20174;-60
2023/08/24 04:53:03;;;;;;;13.83;6.60;;;;;;;;;;6263606;28;20377;-60
2023/08/24 04:56:03;;;;;;;12.82;7.68;;;;;;;;;;6263960;28;20179;-60
2023/08/24 04:59:04;;;;;;;10.82;7.65;;;;;;;;;;6260110;28;20122;-60
2023/08/24 05:02:05;;;;;;;15.65;7.57;;;;;;;;;;6264688;28;20060;-59
2023/08/24 05:05:06;;;;;;;15.27;8.18;;;;;;;;;;6264444;28;20083;-61
2023/08/24 05:08:10;;;;;;;13.32;8.55;;;;;;;;;;6265730;28;20045;-60
2023/08/24 05:11:16;;;;;;;13.02;8.27;;;;;;;;;;6264213;28;20056;-60
2023/08/24 05:14:17;;;;;;;18.58;8.80;;;;;;;;;;6264036;28;20093;-60
2023/08/24 05:17:18;;;;;;;15.02;10.02;;;;;;;;;;6262393;28;20045;-60
2023/08/24 05:20:19;;;;;;;16.23;9.52;;;;;;;;;;6264774;28;20063;-60
2023/08/24 05:23:19;;;;;;;18.55;11.07;;;;;;;;;;6262210;28;20083;-60
2023/08/24 05:26:22;;;;;;;24.65;13.65;;;;;;;;;;6265388;28;20053;-60
2023/08/24 05:29:22;;;;;;;24.35;13.40;;;;;;;;;;6263564;28;20057;-60
2023/08/24 05:32:24;;;;;;;23.08;13.10;;;;;;;;;;6264394;28;20075;-60
2023/08/24 05:35:27;;;;;;;23.10;13.55;;;;;;;;;;6264444;28;20431;-60
2023/08/24 05:38:28;;;;;;;29.92;13.38;;;;;;;;;;6262868;28;20049;-60
2023/08/24 05:41:28;;;;;;;29.27;14.57;;;;;;;;;;6263576;28;20056;-61
2023/08/24 05:44:29;;;;;;;20.85;14.15;;;;;;;;;;6265099;28;20049;-60
2023/08/24 05:47:29;;;;;;;20.77;14.30;;;;;;;;;;6265268;28;20045;-61
2023/08/24 05:50:30;;;;;;;23.60;14.93;;;;;;;;;;6267805;28;20052;-60
2023/08/24 05:53:30;;;;;;;23.57;13.97;;;;;;;;;;6268177;28;20060;-60
2023/08/24 05:56:31;;;;;;;20.33;13.47;;;;;;;;;;6267931;28;20468;-60
2023/08/24 05:59:33;;;;;;;25.60;14.57;;;;;;;;;;6269199;28;20041;-60
2023/08/24 06:02:34;;;;;;;21.40;14.00;;;;;;;;;;6268047;28;20048;-60
2023/08/24 06:05:34;;;;;;;21.70;13.20;;;;;;;;;;6267728;28;20056;-60
2023/08/24 06:08:35;;;;;;;20.67;13.80;;;;;;;;;;6265781;28;20044;-59
2023/08/24 06:11:35;;;;;;;18.90;12.63;;;;;;;;;;6267766;28;20087;-60
2023/08/24 06:14:37;;;;;;;21.03;13.33;;;;;;;;;;6267855;28;20037;-61
2023/08/24 06:17:37;;;;;;;27.90;13.93;;;;;;;;;;6268003;28;20056;-60
2023/08/24 06:20:38;;;;;;;21.77;13.93;;;;;;;;;;6267761;28;20049;-60
2023/08/24 06:23:38;;;;;;;21.17;14.57;;;;;;;;;;6267568;28;20099;-60
2023/08/24 06:26:39;;;;;;;20.30;13.70;;;;;;;;;;6267116;28;20492;-60
2023/08/24 06:29:42;;;;;;;21.47;13.50;;;;;;;;;;6268664;28;20053;-60
2023/08/24 06:32:43;;;;;;;20.88;12.90;;;;;;;;;;6267825;28;20057;-61
2023/08/24 06:35:44;;;;;;;19.37;12.77;;;;;;;;;;6265584;28;20056;-60
2023/08/24 06:38:44;;;;;;;21.97;13.03;;;;;;;;;;6267553;28;20896;-61
2023/08/24 06:41:45;;;;;;;20.00;12.67;;;;;;;;;;6265736;28;20053;-60
2023/08/24 06:44:49;;;;;;;22.00;12.40;;;;;;;;;;6263606;28;20076;-60
2023/08/24 06:47:51;;;;;;;18.25;11.68;;;;;;;;;;6266238;28;20509;-60
2023/08/24 06:50:52;;;;;;;;;;;;;;;;;;6267193;28;20049;-60
2023/08/24 06:53:52;;;;;;;20.40;11.77;;;;;;;;;;6266958;28;20371;-60
2023/08/24 06:56:53;;;;;;;28.57;11.97;;;;;;;;;;6266170;28;20060;-61
2023/08/24 06:59:53;;;;;;;22.63;12.00;;;;;;;;;;6267079;28;20045;-60
2023/08/24 07:02:54;;;;;;;22.47;11.90;;;;;;;;;;6264850;28;20111;-60
2023/08/24 07:05:54;;;;;;;16.33;11.10;;;;;;;;;;6264405;28;20040;-60
2023/08/24 07:08:55;;;;;;;17.50;11.67;;;;;;;;;;6267343;28;20057;-61
2023/08/24 07:11:56;;;;;;;13.80;10.33;;;;;;;;;;6265848;28;20063;-60
2023/08/24 07:14:56;;;;;;;14.83;11.03;;;;;;;;;;6265143;28;20068;-61
2023/08/24 07:17:57;;;;;;;18.30;10.23;;;;;;;;;;6264242;28;20033;-59
2023/08/24 07:20:58;;;;;;;29.20;11.00;;;;;;;;;;6267417;28;20063;-61
2023/08/24 07:23:58;;;;;;;15.73;9.87;;;;;;;;;;6266149;28;20122;-60
2023/08/24 07:26:59;;;;;;;12.50;9.13;;;;;;;;;;6265617;28;20407;-61
2023/08/24 07:30:00;;;;;;;16.13;9.13;;;;;;;;;;6265399;28;20040;-61
2023/08/24 07:33:02;;;;;;;14.75;8.57;;;;;;;;;;6267898;28;20049;-61
2023/08/24 07:36:04;;;;;;;12.85;8.77;;;;;;;;;;6262664;28;20072;-61
2023/08/24 07:39:04;;;;;;;12.88;7.30;;;;;;;;;;6265404;28;20049;-61
2023/08/24 07:42:05;;;;;;;12.53;6.60;;;;;;;;;;6265840;28;20064;-61
2023/08/24 07:45:07;;;;;;;10.43;6.73;;;;;;;;;;6265378;28;20056;-61
2023/08/24 07:48:08;;;;;;;9.98;6.80;;;;;;;;;;6265322;28;20427;-61
2023/08/24 07:51:08;;;;;;;9.30;6.20;;;;;;;;;;6265093;28;20041;-60
2023/08/24 07:54:09;;;;;;;11.67;6.80;;;;;;;;;;6265691;28;20075;-60
2023/08/24 07:57:10;;;;;;;11.90;6.35;;;;;;;;;;6265060;28;20132;-61
2023/08/24 08:00:13;;;;;;;14.13;6.10;;;;;;;;;;6266356;28;20079;-61
2023/08/24 08:03:14;;;;;;;13.07;6.40;;;;;;;;;;6265166;28;20507;-61
2023/08/24 08:06:15;;;;;;;11.13;6.20;;;;;;;;;;6262424;28;20049;-61
2023/08/24 08:09:16;;;;;;;12.03;6.37;;;;;;;;;;6264757;28;20057;-62
2023/08/24 08:12:17;;;;;;;11.10;6.57;;;;;;;;;;6263562;28;20053;-61
2023/08/24 08:15:18;;;;;;;12.87;5.90;;;;;;;;;;6263837;28;20049;-61
2023/08/24 08:18:18;;;;;;;10.20;6.40;;;;;;;;;;6264935;28;20419;-61
2023/08/24 08:21:19;;;;;;;10.17;6.00;;;;;;;;;;6264381;28;20095;-61
2023/08/24 08:24:19;;;;;;;11.23;6.00;;;;;;;;;;6264323;28;20057;-62
2023/08/24 08:27:21;;;;;;;9.87;6.20;;;;;;;;;;6264423;28;20049;-61
2023/08/24 08:30:22;;;;;;;16.45;6.88;;;;;;;;;;6265780;28;20053;-61
2023/08/24 08:33:23;;;;;;;14.07;6.83;;;;;;;;;;6263328;28;20132;-61
2023/08/24 08:36:24;;;;;;;10.00;5.90;;;;;;;;;;6264656;28;20128;-61
2023/08/24 08:39:25;;;;;;;10.18;6.45;;;;;;;;;;6261766;28;20045;-61
2023/08/24 08:42:25;;;;;;;12.50;6.53;;;;;;;;;;6262306;28;20052;-61
2023/08/24 08:45:27;;;;;;;14.33;6.17;;;;;;;;;;6263336;28;20069;-62
2023/08/24 08:48:31;;;;;;;10.48;6.43;;;;;;;;;;6259821;28;20136;-62
2023/08/24 08:51:32;;;;;;;14.43;6.88;;;;;;;;;;6261673;28;20132;-62
2023/08/24 08:54:33;;;;;;;11.85;6.40;;;;;;;;;;6257970;28;20686;-62
2023/08/24 08:57:34;;;;;;;15.03;7.10;;;;;;;;;;6262249;28;20064;-61
2023/08/24 09:00:36;;;;;;;9.52;5.78;;;;;;;;;;6260467;28;20306;-61
2023/08/24 09:03:39;;;;;;;;;;;;;;;;;;6261765;28;20049;-61
2023/08/24 09:06:40;;;;;;;16.52;7.15;;;;;;;;;;6260737;28;19939;-62
2023/08/24 09:09:41;;;;;;;10.27;5.60;;;;;;;;;;6261842;28;20148;-61
2023/08/24 09:12:41;;;;;;;10.77;5.80;;;;;;;;;;6262002;28;20476;-62
2023/08/24 09:15:42;;;;;;;8.10;5.33;;;;;;;;;;6260299;28;20049;-61
2023/08/24 09:18:45;;;;;;;12.45;5.75;;;;;;;;;;6258568;28;20063;-62
2023/08/24 09:21:46;;;;;;;8.00;5.35;;;;;;;;;;6260273;28;20049;-62
2023/08/24 09:24:50;;;;;;;11.43;5.77;;;;;;;;;;6266318;28;20482;-63
2023/08/24 09:28:01;;;;;;;9.85;6.47;;;;;;;;;;6265639;28;20051;-62
2023/08/24 09:31:02;;;;;;;12.88;6.72;;;;;;;;;;6265232;28;20053;-62
2023/08/24 09:34:03;;;;;;;;;;;;;;;;;;6268712;28;20420;-63
2023/08/24 09:37:11;;;;;;;11.23;5.63;;;;;;;;;;6268184;28;20378;-62
2023/08/24 09:40:12;;;;;;;14.48;6.05;;;;;;;;;;6268039;28;20090;-63
2023/08/24 09:43:13;;;;;;;11.60;6.63;;;;;;;;;;6268391;28;20087;-62
2023/08/24 09:46:18;;;;;;;12.40;6.68;;;;;;;;;;6268899;28;20043;-62
2023/08/24 09:49:19;;;;;;;10.57;6.47;;;;;;;;;;6255776;28;20049;-61
2023/08/24 09:52:20;;;;;;;14.23;7.17;;;;;;;;;;6267592;28;20071;-61
2023/08/24 09:55:22;;;;;;;13.80;7.17;;;;;;;;;;6268545;28;20306;-62
2023/08/24 09:58:24;;;;;;;13.60;6.95;;;;;;;;;;6267921;28;20306;-62
2023/08/24 10:01:24;;;;;;;13.93;7.20;;;;;;;;;;6267447;28;20424;-60
2023/08/24 10:04:33;;;;;;;14.10;7.13;;;;;;;;;;6269501;28;20053;-61
2023/08/24 10:07:35;;;;;;;13.95;7.18;;;;;;;;;;6268204;28;20064;-61
2023/08/24 10:10:39;;;;;;;10.80;6.57;;;;;;;;;;6267184;28;20051;-62
2023/08/24 10:13:57;;;;;;;9.65;6.55;;;;;;;;;;6267543;28;20102;-60
2023/08/24 10:16:59;;;;;;;9.60;6.07;;;;;;;;;;6267811;28;20055;-62
2023/08/24 10:20:08;;;;;;;7.13;5.53;;;;;;;;;;6267607;28;20049;-62
2023/08/24 10:23:12;;;;;;;9.70;5.10;;;;;;;;;;6266920;28;20057;-62
2023/08/24 10:26:14;;;;;;;7.60;5.13;;;;;;;;;;6267882;28;20070;-62
2023/08/24 10:29:16;;;;;;;10.98;5.45;;;;;;;;;;6267537;28;20535;-62
2023/08/24 10:32:18;;;;;;;9.57;5.50;;;;;;;;;;6266529;28;20045;-62
2023/08/24 10:35:20;;;;;;;10.10;5.57;;;;;;;;;;6267544;28;20118;-62
2023/08/24 10:38:27;;;;;;;7.82;5.00;;;;;;;;;;6268462;28;20144;-61
2023/08/24 10:41:28;;;;;;;9.05;5.82;;;;;;;;;;6267133;28;20044;-63
2023/08/24 10:44:35;;;;;;;8.77;5.67;;;;;;;;;;6266686;28;20041;-62
2023/08/24 10:47:45;;;;;;;8.27;5.47;;;;;;;;;;6266943;28;20618;-62
2023/08/24 10:51:16;;;;;;;9.18;5.70;;;;;;;;;;6267196;28;20048;-61
2023/08/24 10:54:30;;;;;;;9.27;5.33;;;;;;;;;;6266069;28;20465;-62
2023/08/24 10:57:38;;;;;;;8.95;5.03;;;;;;;;;;6266279;28;20053;-62
2023/08/24 11:00:39;;;;;;;8.27;5.57;;;;;;;;;;6265906;28;21178;-62
2023/08/24 11:03:40;;;;;;;9.82;5.38;;;;;;;;;;6265733;28;20053;-63
2023/08/24 11:06:58;;;;;;;9.23;5.07;;;;;;;;;;6266505;28;20066;-62
2023/08/24 11:09:59;;;;;;;6.68;5.07;;;;;;;;;;6266125;28;20056;-63
2023/08/24 11:13:03;;;;;;;8.13;4.63;;;;;;;;;;6266878;28;20131;-62
2023/08/24 11:16:06;;;;;;;13.95;5.28;;;;;;;;;;6266388;28;20045;-62
2023/08/24 11:19:10;;;;;;;6.60;4.70;;;;;;;;;;6265695;28;20041;-62
2023/08/24 11:22:10;;;;;;;7.72;4.60;;;;;;;;;;6265960;28;20451;-63
2023/08/24 11:25:13;;;;;;;8.20;5.05;;;;;;;;;;6265758;28;20126;-63
2023/08/24 11:28:19;;;;;;;7.55;5.03;;;;;;;;;;6265049;28;20072;-62
2023/08/24 11:31:21;;;;;;;7.32;4.43;;;;;;;;;;6265792;28;20045;-63
2023/08/24 11:34:21;;;;;;;;;;;;;;;;;;6266402;28;20057;-62
2023/08/24 11:37:22;;;;;;;6.13;4.70;;;;;;;;;;6267303;28;20009;-63
2023/08/24 11:40:31;;;;;;;9.70;5.33;;;;;;;;;;6265162;28;20462;-62
2023/08/24 11:43:32;;;;;;;9.45;5.22;;;;;;;;;;6265613;28;20510;-62
2023/08/24 11:46:32;;;;;;;9.00;6.07;;;;;;;;;;6265663;28;20037;-62
2023/08/24 11:49:33;;;;;;;9.10;5.40;;;;;;;;;;6266538;28;20068;-62
2023/08/24 11:52:39;;;;;;;6.93;5.10;;;;;;;;;;6265507;28;20052;-61
2023/08/24 11:55:40;;;;;;;8.60;5.30;;;;;;;;;;6265392;28;20056;-63
2023/08/24 11:58:42;;;;;;;12.13;5.78;;;;;;;;;;6265102;28;20440;-63
2023/08/24 12:01:46;;;;;;;7.97;4.93;;;;;;;;;;6263358;28;20048;-62
2023/08/24 12:04:48;;;;;;;13.90;5.57;;;;;;;;;;6264693;28;20098;-62
2023/08/24 12:07:52;;;;;;;26.73;6.68;;;;;;;;;;6266172;28;20049;-63
2023/08/24 12:10:52;;;;;;;10.68;5.53;;;;;;;;;;6262067;28;20053;-63
2023/08/24 12:13:55;;;;;;;10.38;5.65;;;;;;;;;;6263432;28;20080;-63
2023/08/24 12:16:55;;;;;;;12.20;5.70;;;;;;;;;;6265437;28;20128;-63
2023/08/24 12:20:01;;;;;;;8.73;5.25;;;;;;;;;;6264568;28;20531;-62
2023/08/24 12:23:02;;;;;;;7.72;5.13;;;;;;;;;;6263692;28;20040;-62
2023/08/24 12:26:02;;;;;;;10.05;5.28;;;;;;;;;;6263439;28;20045;-64
2023/08/24 12:29:05;;;;;;;6.70;4.03;;;;;;;;;;6264846;28;20146;-62
2023/08/24 12:32:06;;;;;;;22.30;4.80;;;;;;;;;;6264452;28;20506;-61
2023/08/24 12:35:08;;;;;;;9.82;4.80;;;;;;;;;;6264777;28;20080;-62
2023/08/24 12:38:09;;;;;;;8.65;4.63;;;;;;;;;;6264576;28;20063;-62
2023/08/24 12:41:09;;;;;;;7.30;4.47;;;;;;;;;;6263884;28;20048;-63
2023/08/24 12:44:10;;;;;;;8.50;4.53;;;;;;;;;;6264443;28;20053;-62
2023/08/24 12:47:11;;;;;;;9.30;4.77;;;;;;;;;;6264586;28;20057;-63
2023/08/24 12:50:11;;;;;;;7.30;4.88;;;;;;;;;;6263943;28;20056;-63
2023/08/24 12:53:12;;;;;;;9.70;5.47;;;;;;;;;;6263549;28;20049;-62
2023/08/24 12:56:13;;;;;;;9.43;5.00;;;;;;;;;;6264971;28;20136;-62
2023/08/24 12:59:13;;;;;;;10.27;5.33;;;;;;;;;;6270960;28;20475;-62
2023/08/24 13:02:14;;;;;;;9.13;5.45;;;;;;;;;;6269233;28;20324;-61
2023/08/24 13:05:15;;;;;;;10.33;5.53;;;;;;;;;;6269429;28;20067;-62
2023/08/24 13:08:15;;;;;;;7.22;5.07;;;;;;;;;;6269405;28;20051;-62
2023/08/24 13:11:16;;;;;;;8.33;5.37;;;;;;;;;;6267845;28;20061;-62
2023/08/24 13:14:16;;;;;;;10.32;5.50;;;;;;;;;;6269348;28;20385;-62
2023/08/24 13:17:17;;;;;;;14.07;5.63;;;;;;;;;;6270802;28;20044;-62
2023/08/24 13:20:17;;;;;;;9.85;5.60;;;;;;;;;;6268419;28;20053;-62
2023/08/24 13:23:18;;;;;;;9.40;5.70;;;;;;;;;;6265635;28;20053;-62
2023/08/24 13:26:20;;;;;;;12.15;6.35;;;;;;;;;;6270734;28;20076;-62
2023/08/24 13:29:20;;;;;;;9.70;5.72;;;;;;;;;;6268801;28;20045;-62
2023/08/24 13:32:21;;;;;;;12.27;5.75;;;;;;;;;;6267442;28;20086;-62
2023/08/24 13:35:22;;;;;;;10.27;5.23;;;;;;;;;;6268340;28;20385;-61
2023/08/24 13:38:23;;;;;;;;;;;;;;;;;;6268751;28;20411;-62
2023/08/24 13:41:23;;;;;;;10.03;5.50;;;;;;;;;;6268046;28;19931;-62
2023/08/24 13:44:24;;;;;;;21.70;6.68;;;;;;;;;;6268722;28;20081;-62
2023/08/24 13:47:24;;;;;;;10.03;5.40;;;;;;;;;;6270483;28;20408;-62
2023/08/24 13:50:25;;;;;;;10.55;5.50;;;;;;;;;;6265769;28;20083;-62
2023/08/24 13:53:25;;;;;;;8.63;5.13;;;;;;;;;;6266509;28;20049;-61
2023/08/24 13:56:26;;;;;;;8.77;5.05;;;;;;;;;;6267865;28;20757;-62
2023/08/24 13:59:27;;;;;;;8.80;5.37;;;;;;;;;;6269553;28;20044;-62
2023/08/24 14:02:27;;;;;;;7.88;5.07;;;;;;;;;;6266298;28;20083;-63
2023/08/24 14:05:28;;;;;;;10.13;4.83;;;;;;;;;;6268251;28;20400;-62
2023/08/24 14:08:29;;;;;;;9.23;5.00;;;;;;;;;;6264843;28;20072;-63
2023/08/24 14:11:30;;;;;;;9.03;4.90;;;;;;;;;;6265755;28;20040;-62
2023/08/24 14:14:30;;;;;;;8.55;5.20;;;;;;;;;;6269208;28;20468;-62
2023/08/24 14:17:31;;;;;;;7.70;4.73;;;;;;;;;;6263227;28;20052;-63
2023/08/24 14:20:32;;;;;;;7.10;5.00;;;;;;;;;;6268843;28;20282;-63
2023/08/24 14:23:32;;;;;;;6.80;4.13;;;;;;;;;;6267515;28;20511;-63
2023/08/24 14:26:33;;;;;;;8.55;5.22;;;;;;;;;;6267953;28;20132;-62
2023/08/24 14:29:33;;;;;;;7.50;4.63;;;;;;;;;;6269131;28;20455;-62
2023/08/24 14:32:34;;;;;;;8.93;4.90;;;;;;;;;;6267573;28;20052;-61
2023/08/24 14:35:34;;;;;;;9.00;5.00;;;;;;;;;;6260433;28;20041;-61
2023/08/24 14:38:35;;;;;;;7.15;4.88;;;;;;;;;;6262547;28;20055;-62
2023/08/24 14:41:35;;;;;;;7.33;4.50;;;;;;;;;;6255808;28;20668;-60
2023/08/24 14:44:36;;;;;;;20.63;5.38;;;;;;;;;;6262848;28;20095;-60
2023/08/24 14:47:39;;;;;;;6.20;4.60;;;;;;;;;;6263239;28;20045;-61
2023/08/24 14:50:39;;;;;;;8.60;4.72;;;;;;;;;;6267700;28;20051;-61
2023/08/24 14:53:40;;;;;;;9.60;5.10;;;;;;;;;;6264652;28;20044;-61
2023/08/24 14:56:41;;;;;;;;;;;;;;;;;;6267510;28;20052;-62
2023/08/24 14:59:42;;;;;;;7.30;4.27;;;;;;;;;;6265777;28;19921;-64
2023/08/24 15:02:43;;;;;;;9.20;4.72;;;;;;;;;;6264169;28;20511;-61
2023/08/24 15:05:45;;;;;;;7.10;4.40;;;;;;;;;;6265808;28;20052;-59
2023/08/24 15:08:46;;;;;;;6.53;3.85;;;;;;;;;;6264757;28;20049;-61
2023/08/24 15:11:49;;;;;;;7.50;4.33;;;;;;;;;;6266701;28;20071;-62
2023/08/24 15:15:03;;;;;;;9.55;4.18;;;;;;;;;;6267407;28;20460;-61
2023/08/24 15:18:03;;;;;;;8.40;5.72;;;;;;;;;;6266889;28;20079;-62
2023/08/24 15:21:04;;;;;;;9.05;4.70;;;;;;;;;;6266931;28;20164;-62
2023/08/24 15:24:04;;;;;;;7.40;4.60;;;;;;;;;;6266668;28;20480;-62
2023/08/24 15:27:05;;;;;;;7.50;4.60;;;;;;;;;;6266474;28;20041;-59
2023/08/24 15:30:06;;;;;;;6.63;4.17;;;;;;;;;;6266124;28;20044;-59
2023/08/24 15:33:07;;;;;;;7.85;4.25;;;;;;;;;;6266064;28;20107;-61
2023/08/24 15:36:08;;;;;;;5.07;3.78;;;;;;;;;;6259005;28;20481;-61
2023/08/24 15:39:09;;;;;;;5.55;3.85;;;;;;;;;;6252394;28;20127;-61
2023/08/24 15:42:12;;;;;;;9.65;5.68;;;;;;;;;;6265077;28;20049;-60
2023/08/24 15:45:13;;;;;;;6.85;4.30;;;;;;;;;;6266183;28;20052;-61
2023/08/24 15:48:13;;;;;;;7.57;4.60;;;;;;;;;;6267020;28;20115;-61
2023/08/24 15:51:14;;;;;;;9.27;5.10;;;;;;;;;;6266757;28;20446;-60
2023/08/24 15:54:14;;;;;;;11.67;5.53;;;;;;;;;;6266459;28;20075;-60
2023/08/24 15:57:16;;;;;;;12.70;6.57;;;;;;;;;;6266994;28;20044;-61
2023/08/24 16:00:17;;;;;;;10.75;6.03;;;;;;;;;;6255093;28;20049;-61
2023/08/24 16:03:18;;;;;;;8.35;4.80;;;;;;;;;;6250150;28;20053;-61
2023/08/24 16:06:18;;;;;;;8.57;4.30;;;;;;;;;;6242289;28;20053;-61
2023/08/24 16:09:19;;;;;;;9.45;5.07;;;;;;;;;;6251566;28;20053;-61
2023/08/24 16:12:20;;;;;;;9.63;5.20;;;;;;;;;;6250364;28;20037;-61
2023/08/24 16:15:20;;;;;;;11.70;6.13;;;;;;;;;;6252511;28;20287;-61
2023/08/24 16:18:25;;;;;;;8.68;5.65;;;;;;;;;;6244223;28;20390;-60
2023/08/24 16:21:27;;;;;;;9.43;4.65;;;;;;;;;;6260570;28;20156;-60
2023/08/24 16:24:27;;;;;;;5.88;4.40;;;;;;;;;;6259345;28;20080;-60
2023/08/24 16:27:28;;;;;;;10.85;4.90;;;;;;;;;;6262721;28;20107;-61
2023/08/24 16:30:28;;;;;;;8.03;4.67;;;;;;;;;;6260591;28;20049;-60
2023/08/24 16:33:29;;;;;;;7.38;4.70;;;;;;;;;;6260215;28;20076;-60
2023/08/24 16:36:29;;;;;;;35.20;14.50;;;;;;;;;;6262888;28;20045;-61
2023/08/24 16:39:30;;;;;;;76.35;34.78;;;;;;;;;;6264601;28;20065;-60
2023/08/24 16:42:31;;;;;;;29.08;9.57;;;;;;;;;;6264513;28;20051;-60
2023/08/24 16:45:33;;;;;;;;;;;;;;;;;;6262567;28;20074;-60
2023/08/24 16:48:34;;;;;;;;;;;;;;;;;;6258358;28;20397;-60
2023/08/24 16:51:34;;;;;;;19.13;5.63;;;;;;;;;;6261894;28;19924;-60
2023/08/24 16:54:35;;;;;;;8.27;5.17;;;;;;;;;;6259088;28;20219;-60
2023/08/24 16:57:36;;;;;;;8.95;5.03;;;;;;;;;;6265211;28;20049;-60
2023/08/24 17:00:36;;;;;;;9.25;5.75;;;;;;;;;;6264030;28;20398;-59
2023/08/24 17:03:37;;;;;;;9.55;5.30;;;;;;;;;;6263993;28;20164;-60
2023/08/24 17:06:37;;;;;;;9.70;5.17;;;;;;;;;;6265142;28;20049;-60
2023/08/24 17:09:38;;;;;;;8.02;4.75;;;;;;;;;;6263968;28;20064;-60
2023/08/24 17:12:38;;;;;;;9.23;5.53;;;;;;;;;;6264968;28;20472;-60
2023/08/24 17:15:39;;;;;;;11.82;5.55;;;;;;;;;;6264600;28;20412;-60
2023/08/24 17:18:40;;;;;;;14.90;6.75;;;;;;;;;;6263396;28;20041;-60
2023/08/24 17:21:41;;;;;;;20.10;6.78;;;;;;;;;;6251854;28;20167;-61
2023/08/24 17:24:41;;;;;;;16.17;7.10;;;;;;;;;;6264264;28;20409;-59
2023/08/24 17:27:42;;;;;;;9.95;6.25;;;;;;;;;;6265745;28;20084;-60
2023/08/24 17:30:48;;;;;;;14.43;6.83;;;;;;;;;;6264175;28;20049;-60
2023/08/24 17:33:49;;;;;;;15.38;6.80;;;;;;;;;;6264126;28;20131;-60
2023/08/24 17:36:50;;;;;;;14.07;6.13;;;;;;;;;;6265096;28;20041;-59
2023/08/24 17:39:50;;;;;;;11.70;6.20;;;;;;;;;;6263914;28;20065;-59
2023/08/24 17:42:52;;;;;;;12.20;6.27;;;;;;;;;;6266780;28;20373;-60
2023/08/24 17:45:53;;;;;;;9.48;5.82;;;;;;;;;;6268775;28;20036;-60
2023/08/24 17:48:53;;;;;;;10.73;5.77;;;;;;;;;;6269011;28;20048;-59
2023/08/24 17:51:54;;;;;;;12.27;6.18;;;;;;;;;;6268695;28;20045;-59
2023/08/24 17:54:54;;;;;;;14.40;6.60;;;;;;;;;;6267205;28;20101;-59
2023/08/24 17:57:55;;;;;;;11.43;6.20;;;;;;;;;;6264012;28;20048;-58
2023/08/24 18:00:56;;;;;;;9.97;6.63;;;;;;;;;;6266996;28;20784;-60